sensor_id;sensor_type;location;lat;lon;timestamp;P1;durP1;ratioP1;P2;durP2;ratioP2
20298;SDS011;10308;42.688;23.256;2023-01-19T00:02:24;31.25;;;7.38;;
20298;SDS011;10308;42.688;23.256;2023-01-19T00:04:51;14.35;;;4.35;;
20298;SDS011;10308;42.688;23.256;2023-01-19T00:07:17;17.50;;;5.05;;
20298;SDS011;10308;42.688;23.256;2023-01-19T00:09:44;17.05;;;5.68;;
20298;SDS011;10308;42.688;23.256;2023-01-19T00:12:12;22.92;;;6.45;;
20298;SDS011;10308;42.688;23.256;2023-01-19T00:14:39;16.52;;;4.90;;
20298;SDS011;10308;42.688;23.256;2023-01-19T00:17:06;19.10;;;5.30;;
20298;SDS011;10308;42.688;23.256;2023-01-19T00:19:33;19.08;;;5.45;;
20298;SDS011;10308;42.688;23.256;2023-01-19T00:22:00;17.95;;;4.60;;
20298;SDS011;10308;42.688;23.256;2023-01-19T00:24:26;21.42;;;6.40;;
20298;SDS011;10308;42.688;23.256;2023-01-19T00:26:53;21.42;;;5.82;;
20298;SDS011;10308;42.688;23.256;2023-01-19T00:29:21;18.15;;;5.72;;
20298;SDS011;10308;42.688;23.256;2023-01-19T00:31:48;15.70;;;4.75;;
20298;SDS011;10308;42.688;23.256;2023-01-19T00:34:15;15.60;;;6.00;;
20298;SDS011;10308;42.688;23.256;2023-01-19T00:36:42;20.13;;;5.25;;
20298;SDS011;10308;42.688;23.256;2023-01-19T00:39:09;17.63;;;5.53;;
20298;SDS011;10308;42.688;23.256;2023-01-19T00:41:35;16.20;;;4.97;;
20298;SDS011;10308;42.688;23.256;2023-01-19T00:44:19;16.05;;;4.70;;
20298;SDS011;10308;42.688;23.256;2023-01-19T00:46:47;19.73;;;5.88;;
20298;SDS011;10308;42.688;23.256;2023-01-19T00:49:14;17.58;;;5.88;;
20298;SDS011;10308;42.688;23.256;2023-01-19T00:51:41;15.82;;;5.45;;
20298;SDS011;10308;42.688;23.256;2023-01-19T00:54:08;22.98;;;6.50;;
20298;SDS011;10308;42.688;23.256;2023-01-19T00:56:34;17.83;;;5.18;;
20298;SDS011;10308;42.688;23.256;2023-01-19T00:59:01;17.65;;;4.55;;
20298;SDS011;10308;42.688;23.256;2023-01-19T01:01:29;20.02;;;5.55;;
20298;SDS011;10308;42.688;23.256;2023-01-19T01:03:57;18.15;;;4.80;;
20298;SDS011;10308;42.688;23.256;2023-01-19T01:06:23;17.63;;;4.90;;
20298;SDS011;10308;42.688;23.256;2023-01-19T01:08:50;13.52;;;4.80;;
20298;SDS011;10308;42.688;23.256;2023-01-19T01:11:17;16.88;;;5.10;;
20298;SDS011;10308;42.688;23.256;2023-01-19T01:13:44;20.13;;;4.93;;
20298;SDS011;10308;42.688;23.256;2023-01-19T01:16:12;16.67;;;5.05;;
20298;SDS011;10308;42.688;23.256;2023-01-19T01:18:40;16.08;;;5.60;;
20298;SDS011;10308;42.688;23.256;2023-01-19T01:21:08;17.58;;;4.88;;
20298;SDS011;10308;42.688;23.256;2023-01-19T01:23:37;19.17;;;5.18;;
20298;SDS011;10308;42.688;23.256;2023-01-19T01:26:03;19.33;;;5.20;;
20298;SDS011;10308;42.688;23.256;2023-01-19T01:28:30;14.60;;;4.55;;
20298;SDS011;10308;42.688;23.256;2023-01-19T01:30:57;17.83;;;5.00;;
20298;SDS011;10308;42.688;23.256;2023-01-19T01:33:24;16.60;;;4.78;;
20298;SDS011;10308;42.688;23.256;2023-01-19T01:35:51;18.13;;;4.63;;
20298;SDS011;10308;42.688;23.256;2023-01-19T01:38:19;16.08;;;4.43;;
20298;SDS011;10308;42.688;23.256;2023-01-19T01:40:46;19.10;;;4.93;;
20298;SDS011;10308;42.688;23.256;2023-01-19T01:43:14;14.65;;;4.65;;
20298;SDS011;10308;42.688;23.256;2023-01-19T01:45:42;15.70;;;5.30;;
20298;SDS011;10308;42.688;23.256;2023-01-19T01:48:09;16.75;;;4.57;;
20298;SDS011;10308;42.688;23.256;2023-01-19T01:50:39;12.25;;;3.72;;
20298;SDS011;10308;42.688;23.256;2023-01-19T01:53:30;17.70;;;4.22;;
20298;SDS011;10308;42.688;23.256;2023-01-19T01:55:58;19.75;;;4.40;;
20298;SDS011;10308;42.688;23.256;2023-01-19T01:58:28;14.25;;;4.13;;
20298;SDS011;10308;42.688;23.256;2023-01-19T02:00:55;13.15;;;3.70;;
20298;SDS011;10308;42.688;23.256;2023-01-19T02:03:39;16.98;;;4.43;;
20298;SDS011;10308;42.688;23.256;2023-01-19T02:06:06;21.95;;;4.72;;
20298;SDS011;10308;42.688;23.256;2023-01-19T02:08:36;17.15;;;4.43;;
20298;SDS011;10308;42.688;23.256;2023-01-19T02:11:23;18.98;;;4.57;;
20298;SDS011;10308;42.688;23.256;2023-01-19T02:14:08;14.10;;;4.00;;
20298;SDS011;10308;42.688;23.256;2023-01-19T02:16:35;13.93;;;4.28;;
20298;SDS011;10308;42.688;23.256;2023-01-19T02:19:02;15.85;;;4.85;;
20298;SDS011;10308;42.688;23.256;2023-01-19T02:21:30;14.73;;;4.47;;
20298;SDS011;10308;42.688;23.256;2023-01-19T02:24:03;14.68;;;4.03;;
20298;SDS011;10308;42.688;23.256;2023-01-19T02:26:32;13.30;;;3.83;;
20298;SDS011;10308;42.688;23.256;2023-01-19T02:29:01;14.32;;;4.25;;
20298;SDS011;10308;42.688;23.256;2023-01-19T02:31:30;12.02;;;3.88;;
20298;SDS011;10308;42.688;23.256;2023-01-19T02:33:57;12.27;;;3.58;;
20298;SDS011;10308;42.688;23.256;2023-01-19T02:36:25;17.55;;;4.20;;
20298;SDS011;10308;42.688;23.256;2023-01-19T02:38:54;14.07;;;4.45;;
20298;SDS011;10308;42.688;23.256;2023-01-19T02:41:23;14.80;;;3.72;;
20298;SDS011;10308;42.688;23.256;2023-01-19T02:43:53;17.10;;;3.75;;
20298;SDS011;10308;42.688;23.256;2023-01-19T02:46:21;16.15;;;5.03;;
20298;SDS011;10308;42.688;23.256;2023-01-19T02:48:48;11.32;;;3.65;;
20298;SDS011;10308;42.688;23.256;2023-01-19T02:51:16;15.73;;;4.30;;
20298;SDS011;10308;42.688;23.256;2023-01-19T02:53:49;10.95;;;3.13;;
20298;SDS011;10308;42.688;23.256;2023-01-19T02:59:19;10.95;;;3.67;;
20298;SDS011;10308;42.688;23.256;2023-01-19T03:01:58;13.10;;;3.63;;
20298;SDS011;10308;42.688;23.256;2023-01-19T03:04:32;13.13;;;3.80;;
20298;SDS011;10308;42.688;23.256;2023-01-19T03:07:07;16.85;;;4.38;;
20298;SDS011;10308;42.688;23.256;2023-01-19T03:09:37;11.52;;;3.95;;
20298;SDS011;10308;42.688;23.256;2023-01-19T03:12:11;18.63;;;3.42;;
20298;SDS011;10308;42.688;23.256;2023-01-19T03:14:44;12.68;;;3.80;;
20298;SDS011;10308;42.688;23.256;2023-01-19T03:17:13;13.25;;;4.30;;
20298;SDS011;10308;42.688;23.256;2023-01-19T03:19:42;16.42;;;4.18;;
20298;SDS011;10308;42.688;23.256;2023-01-19T03:22:12;15.93;;;4.10;;
20298;SDS011;10308;42.688;23.256;2023-01-19T03:24:41;15.70;;;4.05;;
20298;SDS011;10308;42.688;23.256;2023-01-19T03:27:11;15.27;;;4.38;;
20298;SDS011;10308;42.688;23.256;2023-01-19T03:29:40;16.73;;;4.97;;
20298;SDS011;10308;42.688;23.256;2023-01-19T03:32:08;13.57;;;3.95;;
20298;SDS011;10308;42.688;23.256;2023-01-19T03:34:37;15.27;;;4.10;;
20298;SDS011;10308;42.688;23.256;2023-01-19T03:37:04;14.05;;;4.43;;
20298;SDS011;10308;42.688;23.256;2023-01-19T03:39:33;16.20;;;4.10;;
20298;SDS011;10308;42.688;23.256;2023-01-19T03:42:00;16.35;;;3.80;;
20298;SDS011;10308;42.688;23.256;2023-01-19T03:44:32;15.15;;;5.20;;
20298;SDS011;10308;42.688;23.256;2023-01-19T03:47:01;15.55;;;4.40;;
20298;SDS011;10308;42.688;23.256;2023-01-19T03:49:29;13.07;;;4.20;;
20298;SDS011;10308;42.688;23.256;2023-01-19T03:51:56;16.67;;;4.65;;
20298;SDS011;10308;42.688;23.256;2023-01-19T03:54:24;16.67;;;4.13;;
20298;SDS011;10308;42.688;23.256;2023-01-19T03:56:50;16.35;;;4.25;;
20298;SDS011;10308;42.688;23.256;2023-01-19T03:59:18;17.00;;;4.63;;
20298;SDS011;10308;42.688;23.256;2023-01-19T04:01:47;16.35;;;4.68;;
20298;SDS011;10308;42.688;23.256;2023-01-19T04:04:34;14.20;;;4.68;;
20298;SDS011;10308;42.688;23.256;2023-01-19T04:07:01;18.55;;;5.00;;
20298;SDS011;10308;42.688;23.256;2023-01-19T04:09:48;17.45;;;5.18;;
20298;SDS011;10308;42.688;23.256;2023-01-19T04:12:24;14.98;;;4.82;;
20298;SDS011;10308;42.688;23.256;2023-01-19T04:15:02;21.17;;;5.47;;
20298;SDS011;10308;42.688;23.256;2023-01-19T04:17:31;18.52;;;5.10;;
20298;SDS011;10308;42.688;23.256;2023-01-19T04:19:58;21.52;;;4.55;;
20298;SDS011;10308;42.688;23.256;2023-01-19T04:22:25;22.05;;;4.95;;
20298;SDS011;10308;42.688;23.256;2023-01-19T04:24:51;20.42;;;6.05;;
20298;SDS011;10308;42.688;23.256;2023-01-19T04:27:19;17.52;;;5.00;;
20298;SDS011;10308;42.688;23.256;2023-01-19T04:29:46;23.40;;;5.88;;
20298;SDS011;10308;42.688;23.256;2023-01-19T04:32:13;18.83;;;5.57;;
20298;SDS011;10308;42.688;23.256;2023-01-19T04:34:41;23.67;;;6.18;;
20298;SDS011;10308;42.688;23.256;2023-01-19T04:37:08;16.00;;;5.20;;
20298;SDS011;10308;42.688;23.256;2023-01-19T04:39:35;25.08;;;6.82;;
20298;SDS011;10308;42.688;23.256;2023-01-19T04:42:02;25.40;;;6.28;;
20298;SDS011;10308;42.688;23.256;2023-01-19T04:44:28;16.70;;;5.15;;
20298;SDS011;10308;42.688;23.256;2023-01-19T04:46:55;22.05;;;5.10;;
20298;SDS011;10308;42.688;23.256;2023-01-19T04:49:22;27.50;;;6.18;;
20298;SDS011;10308;42.688;23.256;2023-01-19T04:51:52;27.08;;;5.68;;
20298;SDS011;10308;42.688;23.256;2023-01-19T04:54:19;23.33;;;6.80;;
20298;SDS011;10308;42.688;23.256;2023-01-19T04:56:46;22.33;;;5.93;;
20298;SDS011;10308;42.688;23.256;2023-01-19T04:59:12;18.30;;;5.32;;
20298;SDS011;10308;42.688;23.256;2023-01-19T05:01:39;15.40;;;4.80;;
20298;SDS011;10308;42.688;23.256;2023-01-19T05:04:06;19.65;;;5.70;;
20298;SDS011;10308;42.688;23.256;2023-01-19T05:06:33;23.63;;;5.70;;
20298;SDS011;10308;42.688;23.256;2023-01-19T05:09:01;19.73;;;5.68;;
20298;SDS011;10308;42.688;23.256;2023-01-19T05:11:31;19.13;;;5.75;;
20298;SDS011;10308;42.688;23.256;2023-01-19T05:13:58;20.73;;;5.90;;
20298;SDS011;10308;42.688;23.256;2023-01-19T05:16:25;15.93;;;4.57;;
20298;SDS011;10308;42.688;23.256;2023-01-19T05:18:52;17.13;;;4.60;;
20298;SDS011;10308;42.688;23.256;2023-01-19T05:21:18;19.55;;;6.13;;
20298;SDS011;10308;42.688;23.256;2023-01-19T05:23:45;22.15;;;6.32;;
20298;SDS011;10308;42.688;23.256;2023-01-19T05:26:13;21.08;;;5.55;;
20298;SDS011;10308;42.688;23.256;2023-01-19T05:28:40;18.27;;;4.15;;
20298;SDS011;10308;42.688;23.256;2023-01-19T05:31:07;20.73;;;4.90;;
20298;SDS011;10308;42.688;23.256;2023-01-19T05:33:33;22.00;;;4.80;;
20298;SDS011;10308;42.688;23.256;2023-01-19T05:36:00;20.80;;;4.80;;
20298;SDS011;10308;42.688;23.256;2023-01-19T05:38:28;23.95;;;6.93;;
20298;SDS011;10308;42.688;23.256;2023-01-19T05:40:55;15.43;;;4.90;;
20298;SDS011;10308;42.688;23.256;2023-01-19T05:43:24;23.95;;;5.65;;
20298;SDS011;10308;42.688;23.256;2023-01-19T05:45:51;19.77;;;5.00;;
20298;SDS011;10308;42.688;23.256;2023-01-19T05:48:17;21.35;;;6.43;;
20298;SDS011;10308;42.688;23.256;2023-01-19T05:50:44;23.08;;;5.72;;
20298;SDS011;10308;42.688;23.256;2023-01-19T05:53:13;20.35;;;5.88;;
20298;SDS011;10308;42.688;23.256;2023-01-19T05:55:40;21.83;;;6.07;;
20298;SDS011;10308;42.688;23.256;2023-01-19T05:58:07;19.98;;;5.85;;
20298;SDS011;10308;42.688;23.256;2023-01-19T06:00:35;24.83;;;6.18;;
20298;SDS011;10308;42.688;23.256;2023-01-19T06:03:01;26.13;;;6.95;;
20298;SDS011;10308;42.688;23.256;2023-01-19T06:05:30;23.77;;;7.03;;
20298;SDS011;10308;42.688;23.256;2023-01-19T06:07:57;21.95;;;5.47;;
20298;SDS011;10308;42.688;23.256;2023-01-19T06:10:23;22.70;;;6.15;;
20298;SDS011;10308;42.688;23.256;2023-01-19T06:12:50;20.25;;;4.85;;
20298;SDS011;10308;42.688;23.256;2023-01-19T06:15:17;20.90;;;5.78;;
20298;SDS011;10308;42.688;23.256;2023-01-19T06:17:45;24.98;;;7.72;;
20298;SDS011;10308;42.688;23.256;2023-01-19T06:20:12;21.70;;;6.72;;
20298;SDS011;10308;42.688;23.256;2023-01-19T06:22:39;23.63;;;6.65;;
20298;SDS011;10308;42.688;23.256;2023-01-19T06:25:06;22.40;;;6.13;;
20298;SDS011;10308;42.688;23.256;2023-01-19T06:27:33;21.42;;;6.88;;
20298;SDS011;10308;42.688;23.256;2023-01-19T06:30:00;21.00;;;6.80;;
20298;SDS011;10308;42.688;23.256;2023-01-19T06:32:27;23.38;;;6.75;;
20298;SDS011;10308;42.688;23.256;2023-01-19T06:34:56;21.02;;;6.38;;
20298;SDS011;10308;42.688;23.256;2023-01-19T06:37:23;19.33;;;5.97;;
20298;SDS011;10308;42.688;23.256;2023-01-19T06:39:51;18.08;;;6.47;;
20298;SDS011;10308;42.688;23.256;2023-01-19T06:42:18;22.08;;;6.60;;
20298;SDS011;10308;42.688;23.256;2023-01-19T06:44:44;19.50;;;5.55;;
20298;SDS011;10308;42.688;23.256;2023-01-19T06:47:12;23.73;;;6.70;;
20298;SDS011;10308;42.688;23.256;2023-01-19T06:49:39;26.15;;;6.20;;
20298;SDS011;10308;42.688;23.256;2023-01-19T06:52:08;22.42;;;6.95;;
20298;SDS011;10308;42.688;23.256;2023-01-19T06:54:35;22.90;;;6.65;;
20298;SDS011;10308;42.688;23.256;2023-01-19T06:57:02;20.60;;;6.07;;
20298;SDS011;10308;42.688;23.256;2023-01-19T06:59:28;27.10;;;6.43;;
20298;SDS011;10308;42.688;23.256;2023-01-19T07:01:55;23.83;;;6.32;;
20298;SDS011;10308;42.688;23.256;2023-01-19T07:04:23;26.65;;;7.32;;
20298;SDS011;10308;42.688;23.256;2023-01-19T07:06:51;23.20;;;6.75;;
20298;SDS011;10308;42.688;23.256;2023-01-19T07:09:19;23.73;;;6.65;;
20298;SDS011;10308;42.688;23.256;2023-01-19T07:11:46;27.00;;;7.25;;
20298;SDS011;10308;42.688;23.256;2023-01-19T07:14:13;23.48;;;6.28;;
20298;SDS011;10308;42.688;23.256;2023-01-19T07:16:40;26.20;;;7.55;;
20298;SDS011;10308;42.688;23.256;2023-01-19T07:19:07;29.52;;;9.45;;
20298;SDS011;10308;42.688;23.256;2023-01-19T07:21:35;24.25;;;6.13;;
20298;SDS011;10308;42.688;23.256;2023-01-19T07:24:01;21.85;;;6.13;;
20298;SDS011;10308;42.688;23.256;2023-01-19T07:26:30;23.40;;;7.13;;
20298;SDS011;10308;42.688;23.256;2023-01-19T07:28:57;23.05;;;7.63;;
20298;SDS011;10308;42.688;23.256;2023-01-19T07:31:23;24.70;;;7.15;;
20298;SDS011;10308;42.688;23.256;2023-01-19T07:33:50;24.80;;;6.55;;
20298;SDS011;10308;42.688;23.256;2023-01-19T07:36:17;25.48;;;6.55;;
20298;SDS011;10308;42.688;23.256;2023-01-19T07:38:43;22.45;;;6.75;;
20298;SDS011;10308;42.688;23.256;2023-01-19T07:41:10;23.25;;;7.40;;
20298;SDS011;10308;42.688;23.256;2023-01-19T07:43:38;19.67;;;6.45;;
20298;SDS011;10308;42.688;23.256;2023-01-19T07:46:05;24.73;;;7.18;;
20298;SDS011;10308;42.688;23.256;2023-01-19T07:48:32;25.45;;;7.00;;
20298;SDS011;10308;42.688;23.256;2023-01-19T07:50:59;27.55;;;7.63;;
20298;SDS011;10308;42.688;23.256;2023-01-19T07:53:29;24.55;;;6.95;;
20298;SDS011;10308;42.688;23.256;2023-01-19T07:55:56;20.90;;;7.38;;
20298;SDS011;10308;42.688;23.256;2023-01-19T07:58:23;24.08;;;5.57;;
20298;SDS011;10308;42.688;23.256;2023-01-19T08:00:52;25.75;;;6.85;;
20298;SDS011;10308;42.688;23.256;2023-01-19T08:03:18;24.25;;;7.38;;
20298;SDS011;10308;42.688;23.256;2023-01-19T08:05:48;24.42;;;7.10;;
20298;SDS011;10308;42.688;23.256;2023-01-19T08:08:15;23.48;;;7.65;;
20298;SDS011;10308;42.688;23.256;2023-01-19T08:10:42;24.45;;;7.03;;
20298;SDS011;10308;42.688;23.256;2023-01-19T08:13:09;24.25;;;7.38;;
20298;SDS011;10308;42.688;23.256;2023-01-19T08:15:36;24.80;;;5.85;;
20298;SDS011;10308;42.688;23.256;2023-01-19T08:18:04;23.23;;;6.85;;
20298;SDS011;10308;42.688;23.256;2023-01-19T08:20:33;27.92;;;5.90;;
20298;SDS011;10308;42.688;23.256;2023-01-19T08:23:00;23.10;;;6.15;;
20298;SDS011;10308;42.688;23.256;2023-01-19T08:25:30;28.23;;;6.63;;
20298;SDS011;10308;42.688;23.256;2023-01-19T08:27:58;23.25;;;7.20;;
20298;SDS011;10308;42.688;23.256;2023-01-19T08:30:25;24.48;;;6.40;;
20298;SDS011;10308;42.688;23.256;2023-01-19T08:32:52;23.15;;;6.40;;
20298;SDS011;10308;42.688;23.256;2023-01-19T08:35:23;22.38;;;7.50;;
20298;SDS011;10308;42.688;23.256;2023-01-19T08:37:50;27.65;;;6.53;;
20298;SDS011;10308;42.688;23.256;2023-01-19T08:40:17;25.75;;;6.22;;
20298;SDS011;10308;42.688;23.256;2023-01-19T08:42:44;26.98;;;7.20;;
20298;SDS011;10308;42.688;23.256;2023-01-19T08:45:11;23.25;;;7.68;;
20298;SDS011;10308;42.688;23.256;2023-01-19T08:47:37;26.88;;;6.38;;
20298;SDS011;10308;42.688;23.256;2023-01-19T08:50:04;25.10;;;7.30;;
20298;SDS011;10308;42.688;23.256;2023-01-19T08:52:33;23.55;;;6.13;;
20298;SDS011;10308;42.688;23.256;2023-01-19T08:55:00;18.27;;;5.95;;
20298;SDS011;10308;42.688;23.256;2023-01-19T08:57:26;25.88;;;6.93;;
20298;SDS011;10308;42.688;23.256;2023-01-19T08:59:53;20.77;;;6.95;;
20298;SDS011;10308;42.688;23.256;2023-01-19T09:02:20;24.05;;;6.05;;
20298;SDS011;10308;42.688;23.256;2023-01-19T09:04:47;19.95;;;5.93;;
20298;SDS011;10308;42.688;23.256;2023-01-19T09:07:13;22.27;;;6.63;;
20298;SDS011;10308;42.688;23.256;2023-01-19T09:09:42;22.98;;;6.50;;
20298;SDS011;10308;42.688;23.256;2023-01-19T09:12:09;20.13;;;6.13;;
20298;SDS011;10308;42.688;23.256;2023-01-19T09:14:36;20.65;;;5.20;;
20298;SDS011;10308;42.688;23.256;2023-01-19T09:17:03;23.80;;;6.18;;
20298;SDS011;10308;42.688;23.256;2023-01-19T09:19:30;17.25;;;5.78;;
20298;SDS011;10308;42.688;23.256;2023-01-19T09:21:57;23.23;;;5.70;;
20298;SDS011;10308;42.688;23.256;2023-01-19T09:24:24;22.77;;;6.47;;
20298;SDS011;10308;42.688;23.256;2023-01-19T09:26:52;21.83;;;5.93;;
20298;SDS011;10308;42.688;23.256;2023-01-19T09:29:19;18.77;;;5.05;;
20298;SDS011;10308;42.688;23.256;2023-01-19T09:31:46;15.40;;;5.28;;
20298;SDS011;10308;42.688;23.256;2023-01-19T09:34:13;20.80;;;5.47;;
20298;SDS011;10308;42.688;23.256;2023-01-19T09:36:40;15.45;;;4.68;;
20298;SDS011;10308;42.688;23.256;2023-01-19T09:39:07;14.93;;;4.70;;
20298;SDS011;10308;42.688;23.256;2023-01-19T09:41:35;13.70;;;3.70;;
20298;SDS011;10308;42.688;23.256;2023-01-19T09:44:04;15.07;;;4.03;;
20298;SDS011;10308;42.688;23.256;2023-01-19T09:46:32;16.75;;;4.32;;
20298;SDS011;10308;42.688;23.256;2023-01-19T09:49:02;16.35;;;5.10;;
20298;SDS011;10308;42.688;23.256;2023-01-19T09:51:32;13.02;;;3.88;;
20298;SDS011;10308;42.688;23.256;2023-01-19T09:54:04;14.00;;;4.13;;
20298;SDS011;10308;42.688;23.256;2023-01-19T09:56:34;14.98;;;4.13;;
20298;SDS011;10308;42.688;23.256;2023-01-19T09:59:02;15.98;;;4.60;;
20298;SDS011;10308;42.688;23.256;2023-01-19T10:01:45;15.35;;;5.07;;
20298;SDS011;10308;42.688;23.256;2023-01-19T10:04:30;13.23;;;3.97;;
20298;SDS011;10308;42.688;23.256;2023-01-19T10:07:05;15.65;;;4.47;;
20298;SDS011;10308;42.688;23.256;2023-01-19T10:09:37;14.93;;;4.80;;
20298;SDS011;10308;42.688;23.256;2023-01-19T10:12:13;14.60;;;4.28;;
20298;SDS011;10308;42.688;23.256;2023-01-19T10:14:57;17.30;;;4.40;;
20298;SDS011;10308;42.688;23.256;2023-01-19T10:17:33;18.95;;;4.15;;
20298;SDS011;10308;42.688;23.256;2023-01-19T10:20:04;10.88;;;3.72;;
20298;SDS011;10308;42.688;23.256;2023-01-19T10:22:40;13.57;;;4.53;;
20298;SDS011;10308;42.688;23.256;2023-01-19T10:25:11;15.98;;;3.65;;
20298;SDS011;10308;42.688;23.256;2023-01-19T10:27:39;13.68;;;3.38;;
20298;SDS011;10308;42.688;23.256;2023-01-19T10:30:09;13.75;;;3.58;;
20298;SDS011;10308;42.688;23.256;2023-01-19T10:32:42;12.40;;;4.43;;
20298;SDS011;10308;42.688;23.256;2023-01-19T10:35:12;14.15;;;4.22;;
20298;SDS011;10308;42.688;23.256;2023-01-19T10:37:45;9.10;;;3.88;;
20298;SDS011;10308;42.688;23.256;2023-01-19T10:40:14;18.48;;;5.00;;
20298;SDS011;10308;42.688;23.256;2023-01-19T10:42:45;14.82;;;4.22;;
20298;SDS011;10308;42.688;23.256;2023-01-19T10:45:15;14.13;;;4.13;;
20298;SDS011;10308;42.688;23.256;2023-01-19T10:47:42;11.18;;;3.92;;
20298;SDS011;10308;42.688;23.256;2023-01-19T10:50:21;11.07;;;3.30;;
20298;SDS011;10308;42.688;23.256;2023-01-19T10:52:49;13.30;;;4.15;;
20298;SDS011;10308;42.688;23.256;2023-01-19T10:55:25;14.65;;;4.35;;
20298;SDS011;10308;42.688;23.256;2023-01-19T10:57:55;13.02;;;3.78;;
20298;SDS011;10308;42.688;23.256;2023-01-19T11:00:36;11.88;;;3.80;;
20298;SDS011;10308;42.688;23.256;2023-01-19T11:03:04;11.23;;;4.13;;
20298;SDS011;10308;42.688;23.256;2023-01-19T11:05:47;14.45;;;4.03;;
20298;SDS011;10308;42.688;23.256;2023-01-19T11:08:20;10.32;;;3.58;;
20298;SDS011;10308;42.688;23.256;2023-01-19T11:10:51;12.90;;;3.65;;
20298;SDS011;10308;42.688;23.256;2023-01-19T11:13:18;11.50;;;3.33;;
20298;SDS011;10308;42.688;23.256;2023-01-19T11:15:47;10.73;;;3.38;;
20298;SDS011;10308;42.688;23.256;2023-01-19T11:18:21;12.80;;;3.90;;
20298;SDS011;10308;42.688;23.256;2023-01-19T11:20:50;12.68;;;3.28;;
20298;SDS011;10308;42.688;23.256;2023-01-19T11:23:19;10.27;;;3.75;;
20298;SDS011;10308;42.688;23.256;2023-01-19T11:25:50;13.23;;;3.42;;
20298;SDS011;10308;42.688;23.256;2023-01-19T11:28:17;10.20;;;3.35;;
20298;SDS011;10308;42.688;23.256;2023-01-19T11:30:58;10.18;;;3.15;;
20298;SDS011;10308;42.688;23.256;2023-01-19T11:33:27;10.07;;;3.47;;
20298;SDS011;10308;42.688;23.256;2023-01-19T11:36:02;9.43;;;3.22;;
20298;SDS011;10308;42.688;23.256;2023-01-19T11:38:30;17.20;;;4.82;;
20298;SDS011;10308;42.688;23.256;2023-01-19T11:40:57;10.65;;;3.80;;
20298;SDS011;10308;42.688;23.256;2023-01-19T11:43:28;10.77;;;3.33;;
20298;SDS011;10308;42.688;23.256;2023-01-19T11:45:57;12.43;;;3.53;;
20298;SDS011;10308;42.688;23.256;2023-01-19T11:48:26;9.38;;;3.15;;
20298;SDS011;10308;42.688;23.256;2023-01-19T11:50:56;10.93;;;3.13;;
20298;SDS011;10308;42.688;23.256;2023-01-19T11:53:25;9.80;;;4.15;;
20298;SDS011;10308;42.688;23.256;2023-01-19T11:55:57;11.98;;;3.22;;
20298;SDS011;10308;42.688;23.256;2023-01-19T11:58:27;11.30;;;4.10;;
20298;SDS011;10308;42.688;23.256;2023-01-19T12:00:55;14.60;;;3.45;;
20298;SDS011;10308;42.688;23.256;2023-01-19T12:03:26;10.88;;;3.00;;
20298;SDS011;10308;42.688;23.256;2023-01-19T12:05:57;7.25;;;2.72;;
20298;SDS011;10308;42.688;23.256;2023-01-19T12:08:28;11.30;;;3.25;;
20298;SDS011;10308;42.688;23.256;2023-01-19T12:10:56;5.80;;;2.53;;
20298;SDS011;10308;42.688;23.256;2023-01-19T12:13:25;10.43;;;3.95;;
20298;SDS011;10308;42.688;23.256;2023-01-19T12:15:54;9.43;;;2.67;;
20298;SDS011;10308;42.688;23.256;2023-01-19T12:18:27;10.98;;;2.65;;
20298;SDS011;10308;42.688;23.256;2023-01-19T12:20:55;11.10;;;2.95;;
20298;SDS011;10308;42.688;23.256;2023-01-19T12:23:31;12.05;;;3.67;;
20298;SDS011;10308;42.688;23.256;2023-01-19T12:26:14;8.52;;;3.05;;
20298;SDS011;10308;42.688;23.256;2023-01-19T12:28:53;10.07;;;2.85;;
20298;SDS011;10308;42.688;23.256;2023-01-19T12:31:24;8.45;;;2.78;;
20298;SDS011;10308;42.688;23.256;2023-01-19T12:33:51;6.85;;;2.25;;
20298;SDS011;10308;42.688;23.256;2023-01-19T12:36:34;8.82;;;2.70;;
20298;SDS011;10308;42.688;23.256;2023-01-19T12:39:02;11.20;;;2.90;;
20298;SDS011;10308;42.688;23.256;2023-01-19T12:41:30;7.75;;;2.42;;
20298;SDS011;10308;42.688;23.256;2023-01-19T12:44:14;7.05;;;2.60;;
20298;SDS011;10308;42.688;23.256;2023-01-19T12:46:56;9.13;;;2.47;;
20298;SDS011;10308;42.688;23.256;2023-01-19T12:49:30;8.63;;;2.95;;
20298;SDS011;10308;42.688;23.256;2023-01-19T12:55:02;6.07;;;2.97;;
20298;SDS011;10308;42.688;23.256;2023-01-19T12:57:33;6.63;;;2.80;;
20298;SDS011;10308;42.688;23.256;2023-01-19T13:00:03;8.35;;;2.45;;
20298;SDS011;10308;42.688;23.256;2023-01-19T13:08:28;7.38;;;2.72;;
20298;SDS011;10308;42.688;23.256;2023-01-19T13:11:21;6.57;;;2.38;;
20298;SDS011;10308;42.688;23.256;2023-01-19T13:16:59;8.13;;;2.80;;
20298;SDS011;10308;42.688;23.256;2023-01-19T13:19:42;7.55;;;2.45;;
20298;SDS011;10308;42.688;23.256;2023-01-19T13:25:28;7.93;;;2.17;;
20298;SDS011;10308;42.688;23.256;2023-01-19T13:27:57;6.82;;;2.15;;
20298;SDS011;10308;42.688;23.256;2023-01-19T13:30:25;7.50;;;2.85;;
20298;SDS011;10308;42.688;23.256;2023-01-19T13:32:53;8.15;;;2.35;;
20298;SDS011;10308;42.688;23.256;2023-01-19T13:35:23;7.35;;;2.42;;
20298;SDS011;10308;42.688;23.256;2023-01-19T13:37:50;6.47;;;2.50;;
20298;SDS011;10308;42.688;23.256;2023-01-19T13:40:19;4.50;;;2.35;;
20298;SDS011;10308;42.688;23.256;2023-01-19T13:42:48;5.60;;;2.10;;
20298;SDS011;10308;42.688;23.256;2023-01-19T13:45:16;7.90;;;3.10;;
20298;SDS011;10308;42.688;23.256;2023-01-19T13:47:51;7.32;;;2.33;;
20298;SDS011;10308;42.688;23.256;2023-01-19T13:50:20;9.43;;;3.08;;
20298;SDS011;10308;42.688;23.256;2023-01-19T13:52:49;5.20;;;2.45;;
20298;SDS011;10308;42.688;23.256;2023-01-19T13:55:18;6.65;;;2.65;;
20298;SDS011;10308;42.688;23.256;2023-01-19T13:57:45;8.45;;;2.83;;
20298;SDS011;10308;42.688;23.256;2023-01-19T14:00:17;9.73;;;2.47;;
20298;SDS011;10308;42.688;23.256;2023-01-19T14:02:56;8.50;;;3.00;;
20298;SDS011;10308;42.688;23.256;2023-01-19T14:05:25;6.55;;;2.33;;
20298;SDS011;10308;42.688;23.256;2023-01-19T14:08:01;5.68;;;2.60;;
20298;SDS011;10308;42.688;23.256;2023-01-19T14:10:29;6.97;;;2.83;;
20298;SDS011;10308;42.688;23.256;2023-01-19T14:12:57;5.43;;;2.55;;
20298;SDS011;10308;42.688;23.256;2023-01-19T14:15:24;7.78;;;2.35;;
20298;SDS011;10308;42.688;23.256;2023-01-19T14:18:06;5.75;;;2.10;;
20298;SDS011;10308;42.688;23.256;2023-01-19T14:20:34;5.05;;;2.00;;
20298;SDS011;10308;42.688;23.256;2023-01-19T14:23:03;10.15;;;2.08;;
20298;SDS011;10308;42.688;23.256;2023-01-19T14:25:31;9.40;;;2.40;;
20298;SDS011;10308;42.688;23.256;2023-01-19T14:30:53;7.47;;;2.95;;
20298;SDS011;10308;42.688;23.256;2023-01-19T14:33:33;5.82;;;2.45;;
20298;SDS011;10308;42.688;23.256;2023-01-19T14:36:10;5.28;;;2.42;;
20298;SDS011;10308;42.688;23.256;2023-01-19T14:38:56;7.63;;;2.67;;
20298;SDS011;10308;42.688;23.256;2023-01-19T14:41:25;4.20;;;2.15;;
20298;SDS011;10308;42.688;23.256;2023-01-19T14:43:54;5.47;;;2.55;;
20298;SDS011;10308;42.688;23.256;2023-01-19T14:46:21;3.97;;;1.90;;
20298;SDS011;10308;42.688;23.256;2023-01-19T14:48:49;5.72;;;2.20;;
20298;SDS011;10308;42.688;23.256;2023-01-19T14:51:18;6.00;;;2.30;;
20298;SDS011;10308;42.688;23.256;2023-01-19T14:53:47;7.05;;;2.50;;
20298;SDS011;10308;42.688;23.256;2023-01-19T14:56:24;3.83;;;2.10;;
20298;SDS011;10308;42.688;23.256;2023-01-19T14:58:51;5.25;;;2.22;;